Time;durP1;ratioP1;P1;durP2;ratioP2;P2;SDS_P1;SDS_P2;PMS_P1;PMS_P2;Temp;Humidity;BMP_temperature;BMP_pressure;BME280_temperature;BME280_humidity;BME280_pressure;Samples;Min_cycle;Max_cycle;Signal;HPM_P1;HPM_P2
2021/07/08 00:00:23;;;;;;;6.53;4.32;;;;;;;15.44;83.88;101198.91;702258;28;4502;-50
2021/07/08 00:00:51;;;;;;;6.03;4.28;;;;;;;15.40;83.89;101194.59;701626;28;3589;-50
2021/07/08 00:01:11;;;;;;;7.50;4.32;;;;;;;15.40;83.98;101190.19;702676;28;1144;-49
2021/07/08 00:01:34;;;;;;;7.03;4.28;;;;;;;15.42;83.71;101187.53;703322;28;1498;-50
2021/07/08 00:01:54;;;;;;;6.75;4.50;;;;;;;15.38;83.85;101197.25;702713;28;1126;-51
2021/07/08 00:02:15;;;;;;;7.32;4.65;;;;;;;15.35;83.88;101197.28;703244;28;1097;-51
2021/07/08 00:02:36;;;;;;;7.30;4.60;;;;;;;15.32;83.98;101197.34;701870;28;1047;-50
2021/07/08 00:02:56;;;;;;;6.95;4.53;;;;;;;15.35;83.80;101201.69;702073;28;1333;-49
2021/07/08 00:03:17;;;;;;;6.90;4.27;;;;;;;15.44;83.35;101196.28;700127;28;4373;-49
2021/07/08 00:03:37;;;;;;;6.95;4.30;;;;;;;15.48;83.51;101188.28;702072;28;3423;-51
2021/07/08 00:03:57;;;;;;;8.27;4.70;;;;;;;15.44;84.17;101196.28;700809;28;1428;-50
2021/07/08 00:04:18;;;;;;;5.97;4.70;;;;;;;15.43;83.59;101199.81;702204;28;1298;-54
2021/07/08 00:04:40;;;;;;;5.70;4.60;;;;;;;15.41;83.56;101197.19;702876;28;1022;-50
2021/07/08 00:05:00;;;;;;;6.55;4.45;;;;;;;15.42;83.58;101200.69;702096;28;1059;-50
2021/07/08 00:05:24;;;;;;;6.07;4.53;;;;;;;15.33;84.28;101199.94;701961;28;1325;-51
2021/07/08 00:05:44;;;;;;;7.40;4.72;;;;;;;15.23;84.69;101201.00;703252;28;1121;-50
2021/07/08 00:06:05;;;;;;;7.80;4.70;;;;;;;15.27;84.28;101194.78;702127;28;4368;-49
2021/07/08 00:06:25;;;;;;;8.07;4.63;;;;;;;15.29;84.10;101203.53;702570;28;1857;-50
2021/07/08 00:06:46;;;;;;;7.17;4.70;;;;;;;15.27;84.17;101200.06;702107;28;3716;-50
2021/07/08 00:07:09;;;;;;;8.57;4.55;;;;;;;15.26;84.18;101198.31;703020;28;1069;-49
2021/07/08 00:07:29;;;;;;;7.47;4.40;;;;;;;15.28;84.01;101201.78;701784;28;1134;-52
2021/07/08 00:07:50;;;;;;;6.97;4.70;;;;;;;15.28;84.10;101201.78;702985;28;1264;-49
2021/07/08 00:08:12;;;;;;;7.03;4.80;;;;;;;15.22;84.66;101201.03;703088;28;1201;-49
2021/07/08 00:08:32;;;;;;;7.20;4.32;;;;;;;15.17;84.44;101203.72;702671;28;1123;-50
2021/07/08 00:08:53;;;;;;;8.07;4.40;;;;;;;15.17;84.65;101202.84;702098;28;1455;-49
2021/07/08 00:09:13;;;;;;;8.13;4.57;;;;;;;15.17;84.47;101203.72;701629;28;4274;-52
2021/07/08 00:09:34;;;;;;;6.68;4.28;;;;;;;15.16;84.63;101202.00;701944;28;3636;-51
2021/07/08 00:09:54;;;;;;;8.30;4.43;;;;;;;15.08;85.42;101203.88;702932;28;1482;-50
2021/07/08 00:10:20;;;;;;;9.53;4.80;;;;;;;15.08;85.32;101202.09;702405;28;1219;-51
2021/07/08 00:10:47;;;;;;;7.10;4.78;;;;;;;15.07;85.17;101202.13;702932;28;1344;-50
2021/07/08 00:11:08;;;;;;;7.13;4.45;;;;;;;15.14;84.47;101201.13;703442;28;1058;-49
2021/07/08 00:11:28;;;;;;;7.77;4.60;;;;;;;15.15;84.58;101205.50;702128;28;1986;-49
2021/07/08 00:11:48;;;;;;;6.97;4.70;;;;;;;15.13;84.89;101202.91;702591;28;1228;-50
2021/07/08 00:12:09;;;;;;;6.67;4.50;;;;;;;15.14;84.57;101198.50;703017;28;4518;-52
2021/07/08 00:12:29;;;;;;;7.80;4.47;;;;;;;15.17;83.95;101203.72;701473;28;3927;-50
2021/07/08 00:12:49;;;;;;;5.93;4.20;;;;;;;15.25;83.79;101199.19;702106;28;1292;-49
2021/07/08 00:13:10;;;;;;;6.83;4.30;;;;;;;15.28;83.58;101199.13;703242;27;1478;-50
2021/07/08 00:13:30;;;;;;;6.00;4.13;;;;;;;15.28;83.29;101196.50;702406;28;1177;-50
2021/07/08 00:13:51;;;;;;;8.57;4.50;;;;;;;15.28;83.43;101195.66;702775;28;1189;-50
2021/07/08 00:14:11;;;;;;;8.75;4.60;;;;;;;15.27;83.75;101196.53;702777;28;1178;-50
2021/07/08 00:14:32;;;;;;;7.17;4.70;;;;;;;15.23;83.94;101198.38;702737;28;1245;-50
2021/07/08 00:14:53;;;;;;;7.03;4.53;;;;;;;15.20;83.83;101198.38;701413;28;1202;-53
2021/07/08 00:15:16;;;;;;;6.60;4.32;;;;;;;15.23;84.11;101202.75;701461;28;4535;-50
2021/07/08 00:15:37;;;;;;;7.90;4.40;;;;;;;15.23;83.94;101190.47;702582;28;3598;-49
2021/07/08 00:15:58;;;;;;;7.90;4.43;;;;;;;15.24;83.65;101197.44;701753;28;1302;-51
2021/07/08 00:16:18;;;;;;;6.50;4.38;;;;;;;15.24;83.53;101197.44;700758;28;1486;-51
2021/07/08 00:16:38;;;;;;;8.23;4.37;;;;;;;15.27;83.37;101196.53;699832;28;1556;-50
2021/07/08 00:16:59;;;;;;;8.67;4.13;;;;;;;15.32;83.04;101202.59;696985;28;2086;-51
2021/07/08 00:17:19;;;;;;;8.33;4.30;;;;;;;15.32;83.18;101192.94;697131;28;1187;-49
2021/07/08 00:17:40;;;;;;;8.57;4.50;;;;;;;15.32;83.62;101198.19;696714;28;1150;-50
2021/07/08 00:18:08;;;;;;;7.43;4.53;;;;;;;15.25;84.03;101195.69;696464;28;4340;-48
2021/07/08 00:18:29;;;;;;;6.57;4.72;;;;;;;15.20;83.64;101200.16;700169;28;3795;-49
2021/07/08 00:18:52;;;;;;;6.20;4.22;;;;;;;15.18;83.56;101202.81;702508;28;3045;-50
2021/07/08 00:19:12;;;;;;;6.53;4.30;;;;;;;15.15;84.05;101201.09;701539;28;1394;-49
2021/07/08 00:19:34;;;;;;;6.40;4.50;;;;;;;15.14;83.99;101199.34;702884;28;1122;-49
2021/07/08 00:19:54;;;;;;;8.02;4.75;;;;;;;15.15;83.84;101203.72;701726;28;1142;-49
2021/07/08 00:20:18;;;;;;;7.83;4.40;;;;;;;15.22;83.36;101209.78;701711;28;1368;-49
2021/07/08 00:20:40;;;;;;;6.78;4.30;;;;;;;15.27;83.20;101209.69;702496;28;1375;-49
2021/07/08 00:21:00;;;;;;;6.47;4.40;;;;;;;15.27;82.96;101205.31;700860;28;4575;-51
2021/07/08 00:21:22;;;;;;;7.53;4.40;;;;;;;15.24;83.63;101215.88;702230;28;3888;-49
2021/07/08 00:21:42;;;;;;;6.85;4.40;;;;;;;15.15;83.84;101206.38;702833;28;3595;-50
2021/07/08 00:22:03;;;;;;;6.60;4.50;;;;;;;15.08;84.16;101206.50;702306;28;1372;-49
2021/07/08 00:22:24;;;;;;;7.22;4.40;;;;;;;15.01;84.89;101204.81;702391;28;1265;-49
2021/07/08 00:22:45;;;;;;;7.60;4.70;;;;;;;14.96;85.31;101211.03;701790;28;1095;-50
2021/07/08 00:23:06;;;;;;;7.55;4.57;;;;;;;14.95;85.47;101218.94;701975;28;1296;-49
2021/07/08 00:23:26;;;;;;;7.28;4.63;;;;;;;14.92;84.93;101213.75;701443;28;1545;-50
2021/07/08 00:23:47;;;;;;;8.13;4.77;;;;;;;15.00;84.58;101211.00;703734;28;1188;-49
2021/07/08 00:24:08;;;;;;;7.50;4.32;;;;;;;15.04;84.10;101203.03;701594;28;4357;-50
2021/07/08 00:24:28;;;;;;;6.75;4.47;;;;;;;15.06;84.17;101208.28;701660;28;3524;-49
2021/07/08 00:24:49;;;;;;;6.93;4.57;;;;;;;15.08;84.05;101203.88;703149;28;1263;-49
2021/07/08 00:25:12;;;;;;;8.23;4.65;;;;;;;15.04;84.65;101212.69;703300;28;1339;-51
2021/07/08 00:25:34;;;;;;;6.63;4.30;;;;;;;14.98;84.96;101214.53;702218;28;1268;-50
2021/07/08 00:25:55;;;;;;;8.43;4.65;;;;;;;14.92;85.60;101214.59;702280;28;1324;-48
2021/07/08 00:26:16;;;;;;;6.65;4.80;;;;;;;14.88;85.57;101212.03;702897;28;1127;-50
2021/07/08 00:26:36;;;;;;;6.37;4.50;;;;;;;14.87;85.25;101216.44;702381;28;1198;-51
2021/07/08 00:26:57;;;;;;;6.85;4.60;;;;;;;14.91;84.54;101212.00;701016;28;1367;-49
2021/07/08 00:27:17;;;;;;;7.00;4.73;;;;;;;15.00;84.39;101211.88;698286;28;4320;-52
2021/07/08 00:27:38;;;;;;;6.30;4.30;;;;;;;15.07;83.68;101210.03;697350;28;1212;-49
2021/07/08 00:27:59;;;;;;;6.55;4.25;;;;;;;15.09;83.68;101205.59;696998;28;1175;-49
2021/07/08 00:28:19;;;;;;;6.80;4.37;;;;;;;15.15;83.47;101205.50;697264;28;1326;-53
2021/07/08 00:28:40;;;;;;;6.85;4.40;;;;;;;15.16;83.55;101207.25;695009;28;1178;-50
2021/07/08 00:29:00;;;;;;;7.40;4.57;;;;;;;15.13;83.78;101208.16;695542;28;1386;-50
2021/07/08 00:29:21;;;;;;;7.10;4.32;;;;;;;15.15;83.59;101205.50;698269;28;1380;-49
2021/07/08 00:29:41;;;;;;;8.40;4.50;;;;;;;15.13;83.72;101208.16;700035;28;1364;-52
2021/07/08 00:30:06;;;;;;;10.65;4.35;;;;;;;15.09;83.94;101205.59;699834;28;4389;-51
2021/07/08 00:30:27;;;;;;;7.53;4.53;;;;;;;15.02;84.69;101211.84;700951;28;2048;-51
2021/07/08 00:30:49;;;;;;;7.43;4.57;;;;;;;14.98;85.11;101208.38;701915;28;1162;-49
2021/07/08 00:31:10;;;;;;;7.10;4.45;;;;;;;14.92;85.28;101209.34;703139;28;1309;-50
2021/07/08 00:31:31;;;;;;;7.22;4.45;;;;;;;14.93;84.34;101208.44;701558;28;1917;-50
2021/07/08 00:31:51;;;;;;;6.90;4.47;;;;;;;14.95;84.52;101206.69;702687;28;1208;-50
2021/07/08 00:32:11;;;;;;;6.70;4.40;;;;;;;14.92;84.92;101206.69;703464;28;1118;-49
2021/07/08 00:32:32;;;;;;;8.15;4.53;;;;;;;14.93;84.66;101204.97;702378;28;1178;-52
2021/07/08 00:32:53;;;;;;;8.00;4.57;;;;;;;14.93;84.37;101203.19;703385;28;1126;-49
2021/07/08 00:33:13;;;;;;;7.95;4.43;;;;;;;15.00;84.05;101195.22;704571;27;4499;-53
2021/07/08 00:33:37;;;;;;;6.90;4.30;;;;;;;15.00;84.05;101205.75;705465;27;1229;-50
2021/07/08 00:34:01;;;;;;;6.57;4.00;;;;;;;14.96;84.43;101207.53;704169;27;1212;-50
2021/07/08 00:34:21;;;;;;;6.32;4.47;;;;;;;14.92;84.32;101204.06;705344;27;1372;-51
2021/07/08 00:34:42;;;;;;;8.03;4.83;;;;;;;14.89;84.50;101204.13;706219;27;1126;-49
2021/07/08 00:35:04;;;;;;;7.28;4.65;;;;;;;14.85;84.48;101207.69;703621;27;1391;-50
2021/07/08 00:35:24;;;;;;;7.20;4.85;;;;;;;14.90;84.10;101205.00;702694;28;1019;-51
2021/07/08 00:35:45;;;;;;;7.07;4.45;;;;;;;14.94;83.90;101207.56;702913;28;1185;-50
2021/07/08 00:36:05;;;;;;;7.07;4.35;;;;;;;15.06;83.46;101201.22;702084;28;4682;-51
2021/07/08 00:36:26;;;;;;;7.03;4.10;;;;;;;15.09;83.32;101202.94;701708;28;3318;-53
2021/07/08 00:36:46;;;;;;;6.93;4.03;;;;;;;15.09;83.26;101192.41;702938;28;1322;-50
2021/07/08 00:37:07;;;;;;;5.93;4.17;;;;;;;15.04;83.70;101203.03;702194;28;1107;-49
2021/07/08 00:37:27;;;;;;;5.70;4.20;;;;;;;15.00;83.76;101200.47;700473;28;1729;-49
2021/07/08 00:37:47;;;;;;;5.80;4.35;;;;;;;15.01;83.55;101197.81;700541;28;1346;-50
2021/07/08 00:38:08;;;;;;;6.00;4.40;;;;;;;15.04;83.45;101196.91;697818;28;1276;-50
2021/07/08 00:38:29;;;;;;;6.93;4.25;;;;;;;14.93;84.31;101200.56;697409;28;1214;-49
2021/07/08 00:38:49;;;;;;;6.30;4.35;;;;;;;14.90;84.08;101200.59;697447;28;1213;-54
2021/07/08 00:39:10;;;;;;;6.23;4.50;;;;;;;14.84;84.51;101207.72;697659;28;4485;-51
2021/07/08 00:39:30;;;;;;;7.10;4.32;;;;;;;14.80;84.29;101196.34;699430;28;1191;-49
2021/07/08 00:39:51;;;;;;;8.70;4.67;;;;;;;14.76;84.82;101199.91;701010;28;1340;-48
2021/07/08 00:40:13;;;;;;;8.50;4.70;;;;;;;14.74;84.71;101201.69;702225;28;1178;-50
2021/07/08 00:40:33;;;;;;;7.22;4.50;;;;;;;14.76;84.58;101205.16;702909;28;1173;-50
2021/07/08 00:40:53;;;;;;;6.93;4.40;;;;;;;14.79;84.52;101207.78;701550;28;1321;-50
2021/07/08 00:41:14;;;;;;;7.30;4.50;;;;;;;14.80;84.26;101202.50;702176;28;1261;-50
2021/07/08 00:41:35;;;;;;;6.50;4.50;;;;;;;14.78;84.67;101203.41;702906;28;1118;-50
2021/07/08 00:41:55;;;;;;;7.82;4.70;;;;;;;14.77;84.87;101204.28;702672;28;2534;-49
2021/07/08 00:42:15;;;;;;;9.40;4.80;;;;;;;14.74;85.49;101201.69;701538;28;4281;-49
2021/07/08 00:42:38;;;;;;;7.78;4.78;;;;;;;14.67;85.23;101207.94;702684;28;1328;-50
2021/07/08 00:42:59;;;;;;;6.95;4.40;;;;;;;14.66;85.25;101207.06;701003;28;1479;-50
2021/07/08 00:43:20;;;;;;;8.35;4.68;;;;;;;14.67;85.11;101210.56;702055;28;1221;-50
2021/07/08 00:43:41;;;;;;;9.90;4.70;;;;;;;14.74;84.87;101204.34;701779;28;1364;-54
2021/07/08 00:44:02;;;;;;;8.02;4.50;;;;;;;14.76;84.60;101205.16;702182;28;1213;-51
2021/07/08 00:44:22;;;;;;;6.33;4.20;;;;;;;14.77;84.24;101209.53;702586;28;1395;-49
2021/07/08 00:44:42;;;;;;;6.85;4.25;;;;;;;14.78;84.34;101213.94;703168;28;1348;-50
2021/07/08 00:45:12;;;;;;;7.20;4.70;;;;;;;14.78;84.14;101206.88;700472;28;4693;-51
2021/07/08 00:45:33;;;;;;;7.30;4.20;;;;;;;14.85;83.80;101202.41;701306;28;1381;-54
2021/07/08 00:45:54;;;;;;;7.03;4.40;;;;;;;14.89;83.66;101206.75;701958;28;1423;-50
2021/07/08 00:46:14;;;;;;;6.50;4.60;;;;;;;14.84;83.96;101208.56;702884;28;1213;-48
2021/07/08 00:46:34;;;;;;;6.20;4.27;;;;;;;14.87;83.90;101211.19;703109;28;1178;-49
2021/07/08 00:46:55;;;;;;;7.77;4.30;;;;;;;14.86;83.81;101208.56;701895;28;1064;-50
2021/07/08 00:47:15;;;;;;;7.07;4.32;;;;;;;14.90;83.87;101205.00;703411;28;1185;-50
2021/07/08 00:47:35;;;;;;;7.50;4.40;;;;;;;14.98;83.15;101208.38;703400;28;1197;-48
2021/07/08 00:47:56;;;;;;;7.25;4.30;;;;;;;14.90;84.53;101211.13;702595;28;3375;-50
2021/07/08 00:48:17;;;;;;;7.43;4.85;;;;;;;14.86;83.87;101208.56;700789;28;5274;-48
2021/07/08 00:48:37;;;;;;;6.50;4.47;;;;;;;14.91;83.32;101207.63;703080;28;1280;-51
2021/07/08 00:48:57;;;;;;;7.78;4.70;;;;;;;14.88;83.81;101204.13;703010;28;1508;-51
2021/07/08 00:49:18;;;;;;;8.03;4.40;;;;;;;14.82;83.83;101207.72;703421;28;1201;-50
2021/07/08 00:49:38;;;;;;;7.27;4.27;;;;;;;14.80;83.74;101207.75;701286;28;1183;-52
2021/07/08 00:49:59;;;;;;;6.70;4.32;;;;;;;14.73;84.40;101211.38;701264;28;1190;-49
2021/07/08 00:50:33;;;;;;;7.17;4.50;;;;;;;14.75;84.45;101213.97;702261;28;1396;-50
2021/07/08 00:50:54;;;;;;;8.20;4.30;;;;;;;14.76;83.84;101207.78;702068;28;1936;-51
2021/07/08 00:51:15;;;;;;;8.98;4.15;;;;;;;14.78;84.26;101212.16;702206;28;4363;-49
2021/07/08 00:51:35;;;;;;;7.47;4.18;;;;;;;14.78;84.13;101208.66;702066;28;1164;-50
2021/07/08 00:51:55;;;;;;;6.90;4.70;;;;;;;14.76;84.08;101207.78;702193;28;1150;-51
2021/07/08 00:52:16;;;;;;;7.00;4.53;;;;;;;14.75;84.30;101208.72;702988;28;1329;-51
2021/07/08 00:52:37;;;;;;;6.72;4.40;;;;;;;14.74;84.18;101210.47;702620;28;1209;-50
2021/07/08 00:52:59;;;;;;;6.90;4.30;;;;;;;14.77;83.94;101209.53;702823;28;1240;-50
2021/07/08 00:53:21;;;;;;;8.07;4.63;;;;;;;14.78;83.90;101216.56;702921;28;1395;-49
2021/07/08 00:53:42;;;;;;;7.28;4.63;;;;;;;14.76;84.03;101208.69;703156;28;1336;-50
2021/07/08 00:54:02;;;;;;;7.57;4.75;;;;;;;14.74;84.14;101210.47;701317;28;4599;-50
2021/07/08 00:54:23;;;;;;;7.37;4.57;;;;;;;14.76;83.62;101210.44;702511;28;1296;-52
2021/07/08 00:54:43;;;;;;;8.85;4.57;;;;;;;14.77;83.75;101209.53;702933;28;1454;-50
2021/07/08 00:55:05;;;;;;;8.13;4.30;;;;;;;14.79;83.74;101207.78;702346;28;1007;-51
2021/07/08 00:55:26;;;;;;;6.40;4.55;;;;;;;14.79;83.70;101207.78;702315;28;1224;-49
2021/07/08 00:55:55;;;;;;;7.38;4.63;;;;;;;14.76;83.64;101206.06;696642;28;1172;-49
2021/07/08 00:56:16;;;;;;;6.20;4.30;;;;;;;14.80;83.51;101207.75;695842;28;1187;-49
2021/07/08 00:56:37;;;;;;;6.75;4.40;;;;;;;14.86;83.14;101209.44;698006;28;1139;-53
2021/07/08 00:56:57;;;;;;;6.65;4.30;;;;;;;14.91;82.96;101215.50;698760;28;3326;-52
2021/07/08 00:57:17;;;;;;;6.97;4.40;;;;;;;14.93;82.76;101208.44;696864;28;4305;-50
2021/07/08 00:57:52;;;;;;;6.38;4.40;;;;;;;14.89;83.23;101209.38;700798;28;1287;-50
2021/07/08 00:58:17;;;;;;;8.65;4.80;;;;;;;14.79;83.61;101205.16;702772;28;1118;-50
2021/07/08 00:58:37;;;;;;;8.88;4.68;;;;;;;14.76;83.62;101208.69;703176;28;1245;-52
2021/07/08 00:59:05;;;;;;;9.43;4.57;;;;;;;14.78;83.74;101203.41;702951;28;1300;-52
2021/07/08 00:59:25;;;;;;;8.10;4.40;;;;;;;14.74;83.78;101207.81;703141;28;1105;-49
2021/07/08 00:59:46;;;;;;;7.13;4.37;;;;;;;14.71;83.68;101209.66;702338;28;1109;-50
2021/07/08 01:00:08;;;;;;;8.15;4.60;;;;;;;14.67;83.87;101200.91;702284;28;4503;-51
2021/07/08 01:00:32;;;;;;;7.75;4.57;;;;;;;14.69;83.84;101200.88;701854;28;1209;-49
2021/07/08 01:00:53;;;;;;;7.35;4.70;;;;;;;14.72;84.18;101206.13;700162;28;1293;-51
2021/07/08 01:01:13;;;;;;;7.50;4.53;;;;;;;14.73;83.94;101205.22;700663;28;1221;-52
2021/07/08 01:01:34;;;;;;;5.90;4.43;;;;;;;14.79;83.31;101208.63;697879;28;1187;-49
2021/07/08 01:01:57;;;;;;;6.18;4.28;;;;;;;14.82;83.32;101202.47;698441;28;1170;-49
2021/07/08 01:02:18;;;;;;;6.60;4.20;;;;;;;14.84;83.03;101205.94;700099;28;1237;-51
2021/07/08 01:02:39;;;;;;;8.00;4.45;;;;;;;14.82;83.22;101207.72;699726;28;1413;-49
2021/07/08 01:03:01;;;;;;;9.48;4.57;;;;;;;14.81;82.93;101208.63;699363;28;3732;-50
2021/07/08 01:03:22;;;;;;;9.57;4.47;;;;;;;14.81;82.85;101208.63;698515;28;4675;-52
2021/07/08 01:03:42;;;;;;;7.43;4.22;;;;;;;14.85;82.51;101209.47;701073;28;1338;-53
2021/07/08 01:04:04;;;;;;;6.30;4.38;;;;;;;14.87;82.53;101210.28;696880;28;1317;-49
2021/07/08 01:04:25;;;;;;;6.35;4.28;;;;;;;14.86;83.02;101214.69;695341;28;1189;-49
2021/07/08 01:04:48;;;;;;;6.80;4.68;;;;;;;14.82;83.30;101213.84;697678;28;1138;-49
2021/07/08 01:05:09;;;;;;;7.82;4.60;;;;;;;14.80;83.34;101213.03;699404;28;1131;-49
2021/07/08 01:05:36;;;;;;;7.75;4.43;;;;;;;14.78;83.37;101220.06;699896;28;1087;-49
2021/07/08 01:05:56;;;;;;;6.63;4.43;;;;;;;14.76;83.30;101224.47;698209;28;3418;-52
2021/07/08 01:06:18;;;;;;;8.23;4.30;;;;;;;14.77;83.54;101217.44;699764;28;4388;-51
2021/07/08 01:06:45;;;;;;;7.78;4.40;;;;;;;14.73;83.75;101223.63;700496;28;1278;-50
2021/07/08 01:07:05;;;;;;;6.78;4.45;;;;;;;14.70;83.65;101219.28;698580;28;1111;-50
2021/07/08 01:07:26;;;;;;;6.88;4.55;;;;;;;14.70;83.47;101213.16;700048;28;1162;-50
2021/07/08 01:07:47;;;;;;;7.85;4.50;;;;;;;14.72;83.82;101216.66;700572;28;1071;-49
2021/07/08 01:08:10;;;;;;;7.70;4.65;;;;;;;14.68;83.95;101218.44;703299;28;1043;-50
2021/07/08 01:08:31;;;;;;;7.90;4.45;;;;;;;14.70;83.77;101219.28;702480;28;1071;-51
2021/07/08 01:08:52;;;;;;;7.03;4.50;;;;;;;14.67;84.04;101218.47;700282;28;3319;-50
2021/07/08 01:09:14;;;;;;;8.23;4.60;;;;;;;14.57;84.50;101218.53;701752;28;4806;-50
2021/07/08 01:09:34;;;;;;;6.32;4.43;;;;;;;14.48;84.81;101216.00;702848;28;1233;-49
2021/07/08 01:09:55;;;;;;;6.30;4.43;;;;;;;14.44;84.59;101222.19;702779;28;1260;-52
2021/07/08 01:10:16;;;;;;;7.10;4.72;;;;;;;14.48;84.73;101213.38;699521;28;1515;-50
2021/07/08 01:10:37;;;;;;;7.70;4.70;;;;;;;14.48;85.07;101223.91;700130;28;1079;-49
2021/07/08 01:10:57;;;;;;;8.15;4.65;;;;;;;14.47;84.98;101222.19;702440;28;1331;-49
2021/07/08 01:11:18;;;;;;;8.00;5.00;;;;;;;14.49;84.42;101217.75;702245;28;1919;-50
2021/07/08 01:11:39;;;;;;;6.57;4.60;;;;;;;14.55;84.18;101219.44;702633;28;1900;-50
2021/07/08 01:11:59;;;;;;;7.88;4.60;;;;;;;14.59;84.28;101222.03;702140;28;3584;-50
2021/07/08 01:12:20;;;;;;;7.53;4.53;;;;;;;14.59;84.41;101215.88;701998;28;5431;-50
2021/07/08 01:12:40;;;;;;;7.93;4.80;;;;;;;14.59;84.67;101219.41;701462;28;1090;-49
2021/07/08 01:13:01;;;;;;;8.18;4.85;;;;;;;14.58;84.53;101220.28;702290;28;1217;-49
2021/07/08 01:13:21;;;;;;;8.43;4.60;;;;;;;14.57;84.26;101217.69;702532;28;1293;-51
2021/07/08 01:13:41;;;;;;;7.32;4.80;;;;;;;14.57;84.54;101221.16;703227;28;1118;-49
2021/07/08 01:14:03;;;;;;;7.20;4.80;;;;;;;14.50;84.94;101216.88;703187;28;1378;-48
2021/07/08 01:14:24;;;;;;;6.00;4.57;;;;;;;14.46;84.79;101218.66;702765;28;1138;-50
2021/07/08 01:14:44;;;;;;;6.40;4.57;;;;;;;14.49;84.68;101223.03;698321;28;3527;-50
2021/07/08 01:15:07;;;;;;;7.45;4.80;;;;;;;14.43;85.46;101216.09;698763;28;4361;-49
2021/07/08 01:15:27;;;;;;;7.55;4.90;;;;;;;14.41;85.24;101216.97;698422;28;1132;-49
2021/07/08 01:15:48;;;;;;;7.10;4.60;;;;;;;14.46;84.80;101215.19;698274;28;1189;-49
2021/07/08 01:16:09;;;;;;;7.35;4.80;;;;;;;14.54;84.67;101220.31;700355;28;1078;-49
2021/07/08 01:16:29;;;;;;;7.93;4.78;;;;;;;14.53;84.13;101216.84;701662;28;1027;-49
2021/07/08 01:16:50;;;;;;;7.60;4.30;;;;;;;14.53;84.64;101215.97;701422;28;1027;-54
2021/07/08 01:17:11;;;;;;;7.70;4.70;;;;;;;14.47;85.18;101222.19;702605;28;1141;-51
2021/07/08 01:17:31;;;;;;;7.40;4.85;;;;;;;14.40;85.63;101223.13;702270;28;3459;-49
2021/07/08 01:17:51;;;;;;;8.60;4.90;;;;;;;14.31;85.93;101219.72;701894;28;3641;-50
2021/07/08 01:18:12;;;;;;;8.77;4.68;;;;;;;14.26;86.18;101212.75;702196;28;4333;-49
2021/07/08 01:18:33;;;;;;;7.68;4.85;;;;;;;14.21;86.35;101217.22;703358;28;1548;-50
2021/07/08 01:18:54;;;;;;;7.87;4.97;;;;;;;14.15;86.62;101212.91;702983;28;1260;-50
2021/07/08 01:19:14;;;;;;;7.53;4.80;;;;;;;14.12;87.22;101212.91;703558;28;1063;-50
2021/07/08 01:19:36;;;;;;;6.53;4.90;;;;;;;14.07;86.97;101212.97;702890;28;1105;-49
2021/07/08 01:19:57;;;;;;;6.53;4.78;;;;;;;14.04;87.49;101213.03;702865;28;1205;-49
2021/07/08 01:20:20;;;;;;;8.37;4.93;;;;;;;14.01;87.60;101212.16;703127;28;1129;-51
2021/07/08 01:20:40;;;;;;;9.68;5.18;;;;;;;13.98;87.70;101207.81;702443;28;3529;-49
2021/07/08 01:21:21;;;;;;;8.82;5.30;;;;;;;13.93;87.98;101213.13;701640;28;1685;-50
2021/07/08 01:21:41;;;;;;;7.15;5.05;;;;;;;13.93;87.84;101213.13;701833;28;4965;-52
2021/07/08 01:22:03;;;;;;;8.30;5.35;;;;;;;13.92;88.08;101211.38;702863;28;1111;-50
2021/07/08 01:22:23;;;;;;;8.18;5.35;;;;;;;13.91;88.13;101211.38;702015;28;1254;-49
2021/07/08 01:22:44;;;;;;;7.60;5.15;;;;;;;13.87;88.62;101204.41;703426;28;1074;-51
2021/07/08 01:23:05;;;;;;;7.32;5.25;;;;;;;13.85;88.61;101212.31;701026;28;1003;-50
2021/07/08 01:23:25;;;;;;;7.18;5.03;;;;;;;13.84;88.67;101204.47;701405;28;1075;-49
2021/07/08 01:23:46;;;;;;;8.77;5.00;;;;;;;13.87;87.82;101209.69;701395;28;3589;-50
2021/07/08 01:24:07;;;;;;;8.45;5.10;;;;;;;13.91;87.65;101207.00;702425;28;4574;-49
2021/07/08 01:24:28;;;;;;;7.90;4.93;;;;;;;13.99;86.70;101211.31;702918;28;1435;-51
2021/07/08 01:24:49;;;;;;;7.07;4.60;;;;;;;14.05;86.42;101208.63;702093;28;1089;-49
2021/07/08 01:25:11;;;;;;;7.65;4.68;;;;;;;14.10;86.16;101207.69;702750;28;1070;-51
2021/07/08 01:25:37;;;;;;;7.30;5.10;;;;;;;14.13;86.23;101206.78;702024;28;1262;-51
2021/07/08 01:25:57;;;;;;;7.57;4.70;;;;;;;14.13;86.30;101207.63;701774;28;1290;-50
2021/07/08 01:26:18;;;;;;;8.03;5.10;;;;;;;14.15;86.19;101207.66;702584;28;1051;-49
2021/07/08 01:26:40;;;;;;;8.63;4.95;;;;;;;14.18;86.06;101207.59;702335;28;3903;-51
2021/07/08 01:27:00;;;;;;;7.90;4.60;;;;;;;14.21;85.73;101209.34;701229;28;1508;-51
2021/07/08 01:27:21;;;;;;;7.53;4.75;;;;;;;14.26;85.73;101207.50;702383;28;4560;-52
2021/07/08 01:27:43;;;;;;;7.90;4.63;;;;;;;14.29;85.67;101205.72;701992;28;1166;-50
2021/07/08 01:28:06;;;;;;;7.97;4.68;;;;;;;14.25;86.21;101200.53;702476;28;1355;-51
2021/07/08 01:28:27;;;;;;;8.45;5.13;;;;;;;14.24;85.88;101207.53;702013;28;1157;-48
2021/07/08 01:28:52;;;;;;;6.22;4.63;;;;;;;14.33;85.60;101208.31;701239;28;1130;-51
2021/07/08 01:29:14;;;;;;;7.15;4.90;;;;;;;14.35;85.13;101211.81;702316;28;1125;-50
2021/07/08 01:29:35;;;;;;;8.52;4.70;;;;;;;14.34;84.89;101205.66;701640;28;3342;-50
2021/07/08 01:29:55;;;;;;;8.30;4.93;;;;;;;14.34;84.64;101207.44;701671;28;970;-51
2021/07/08 01:30:16;;;;;;;7.07;4.67;;;;;;;14.37;84.78;101210.91;701504;28;4443;-50
2021/07/08 01:30:38;;;;;;;7.72;4.75;;;;;;;14.38;84.54;101206.50;702440;28;1066;-50
2021/07/08 01:31:00;;;;;;;8.07;4.70;;;;;;;14.37;84.87;101210.91;702554;28;1460;-50
2021/07/08 01:31:23;;;;;;;7.88;4.65;;;;;;;14.39;84.51;101208.25;703097;28;1913;-48
2021/07/08 01:31:43;;;;;;;7.45;4.72;;;;;;;14.39;84.58;101211.75;702218;28;1454;-50
2021/07/08 01:32:04;;;;;;;8.33;4.60;;;;;;;14.40;84.46;101205.59;701493;28;1153;-51
2021/07/08 01:32:24;;;;;;;8.25;4.60;;;;;;;14.40;84.94;101207.34;702429;28;3682;-50
2021/07/08 01:32:45;;;;;;;7.53;4.53;;;;;;;14.39;84.88;101208.25;702119;28;3483;-50
2021/07/08 01:33:10;;;;;;;6.93;4.60;;;;;;;14.35;85.35;101204.78;701778;28;4345;-51
2021/07/08 01:33:30;;;;;;;6.78;4.70;;;;;;;14.31;85.40;101211.81;702598;28;1221;-50
2021/07/08 01:33:52;;;;;;;7.00;4.80;;;;;;;14.27;85.71;101204.88;699662;28;1435;-51
2021/07/08 01:34:13;;;;;;;5.90;4.60;;;;;;;14.22;85.74;101203.16;700115;28;1155;-49
2021/07/08 01:34:35;;;;;;;6.97;4.70;;;;;;;14.17;85.95;101205.84;700549;28;1190;-49
2021/07/08 01:34:55;;;;;;;7.13;4.75;;;;;;;14.16;86.00;101212.00;699479;28;1218;-49
2021/07/08 01:35:15;;;;;;;8.35;4.93;;;;;;;14.15;85.71;101202.38;701130;28;1213;-53
2021/07/08 01:35:36;;;;;;;6.90;4.70;;;;;;;14.17;85.97;101203.22;698987;28;3809;-50
2021/07/08 01:35:59;;;;;;;6.93;4.83;;;;;;;14.17;86.05;101202.38;698802;28;1454;-49
2021/07/08 01:36:23;;;;;;;8.13;5.03;;;;;;;14.13;85.87;101206.78;696559;28;5020;-53
2021/07/08 01:36:43;;;;;;;6.57;4.50;;;;;;;14.14;85.63;101205.91;697344;28;1444;-49
2021/07/08 01:37:06;;;;;;;6.55;4.63;;;;;;;14.13;86.22;101206.78;697433;28;1160;-52
2021/07/08 01:37:26;;;;;;;6.45;4.97;;;;;;;14.10;86.20;101202.41;700513;28;1213;-49
2021/07/08 01:37:47;;;;;;;8.35;4.70;;;;;;;14.07;86.53;101204.22;702238;28;1449;-49
2021/07/08 01:38:08;;;;;;;7.85;4.90;;;;;;;14.05;86.23;101201.63;702339;28;1292;-50
2021/07/08 01:38:29;;;;;;;6.78;4.82;;;;;;;14.06;86.31;101207.75;701417;28;3545;-49
2021/07/08 01:38:51;;;;;;;7.18;4.72;;;;;;;14.04;86.32;101201.59;702224;28;1284;-51
2021/07/08 01:39:17;;;;;;;8.63;5.07;;;;;;;14.02;86.43;101206.03;701366;28;4597;-49
2021/07/08 01:39:38;;;;;;;6.05;4.70;;;;;;;14.03;86.56;101207.78;703250;28;1395;-50
2021/07/08 01:40:05;;;;;;;6.20;4.87;;;;;;;14.05;86.31;101200.72;702791;28;1228;-49
2021/07/08 01:40:26;;;;;;;7.43;4.65;;;;;;;14.09;85.84;101199.81;701922;28;1260;-49
2021/07/08 01:40:47;;;;;;;7.55;4.50;;;;;;;14.12;85.54;101208.56;702574;28;1141;-51
2021/07/08 01:41:07;;;;;;;7.50;4.80;;;;;;;14.14;85.96;101211.16;702319;28;1070;-50
2021/07/08 01:41:27;;;;;;;8.23;5.30;;;;;;;14.12;86.06;101205.03;701343;28;3336;-51
2021/07/08 01:41:48;;;;;;;7.47;4.90;;;;;;;14.12;85.30;101205.03;702891;28;1097;-50
2021/07/08 01:42:09;;;;;;;8.67;4.80;;;;;;;14.13;85.47;101201.53;701843;28;4339;-49